createdAt,value
2022-11-14T00:01:20.647Z,9.30
2022-11-14T00:03:51.275Z,9.47
2022-11-14T00:06:20.008Z,8.87
2022-11-14T00:08:47.064Z,9.60
2022-11-14T00:11:14.116Z,10.53
2022-11-14T00:13:41.143Z,10.43
2022-11-14T00:16:08.243Z,10.27
2022-11-14T00:18:35.360Z,11.10
2022-11-14T00:21:02.636Z,9.50
2022-11-14T00:23:29.669Z,8.83
2022-11-14T00:25:56.819Z,10.27
2022-11-14T00:28:23.829Z,9.90
2022-11-14T00:30:50.905Z,10.27
2022-11-14T00:33:20.996Z,10.00
2022-11-14T00:35:56.610Z,10.60
2022-11-14T00:38:24.673Z,10.50
2022-11-14T00:40:51.893Z,9.50
2022-11-14T00:43:19.217Z,10.80
2022-11-14T00:45:48.146Z,9.80
2022-11-14T00:48:16.358Z,10.13
2022-11-14T00:50:44.469Z,10.50
2022-11-14T00:53:22.808Z,9.43
2022-11-14T00:55:50.569Z,10.63
2022-11-14T00:58:17.571Z,10.60
2022-11-14T01:00:44.818Z,9.90
2022-11-14T01:03:12.018Z,10.40
2022-11-14T01:05:48.468Z,9.53
2022-11-14T01:08:18.358Z,9.30
2022-11-14T01:10:49.851Z,8.93
2022-11-14T01:13:19.110Z,9.50
2022-11-14T01:15:49.688Z,9.10
2022-11-14T01:18:21.960Z,9.20
2022-11-14T01:20:49.816Z,8.97
2022-11-14T01:23:17.933Z,8.30
2022-11-14T01:25:45.626Z,9.30
2022-11-14T01:28:16.821Z,8.70
2022-11-14T01:30:44.119Z,8.77
2022-11-14T01:33:11.219Z,8.80
2022-11-14T01:35:39.391Z,8.97
2022-11-14T01:38:06.963Z,9.33
2022-11-14T01:40:34.170Z,8.73
2022-11-14T01:43:19.785Z,9.27
2022-11-14T01:46:04.415Z,8.00
2022-11-14T01:48:51.153Z,8.00
2022-11-14T01:51:33.935Z,8.47
2022-11-14T01:54:07.625Z,8.53
2022-11-14T01:56:48.629Z,8.57
2022-11-14T01:59:21.711Z,7.93
2022-11-14T02:01:52.522Z,8.00
2022-11-14T02:04:33.283Z,8.87
2022-11-14T02:07:04.784Z,9.00
2022-11-14T02:09:38.092Z,8.83
2022-11-14T02:12:20.966Z,8.80
2022-11-14T02:14:55.244Z,9.10
2022-11-14T02:17:36.547Z,8.23
2022-11-14T02:20:12.009Z,8.23
2022-11-14T02:22:43.294Z,7.30
2022-11-14T02:25:15.751Z,8.83
2022-11-14T02:27:43.313Z,8.40
2022-11-14T02:30:22.435Z,8.87
2022-11-14T02:33:09.914Z,8.80
2022-11-14T02:35:39.802Z,8.67
2022-11-14T02:38:09.709Z,8.63
2022-11-14T02:40:36.840Z,8.87
2022-11-14T02:43:23.946Z,8.50
2022-11-14T02:45:51.203Z,8.80
2022-11-14T02:48:28.817Z,8.43
2022-11-14T02:50:59.945Z,8.30
2022-11-14T02:53:29.591Z,8.27
2022-11-14T02:56:13.886Z,8.70
2022-11-14T02:58:42.397Z,8.87
2022-11-14T03:01:21.156Z,7.90
2022-11-14T03:04:00.072Z,8.50
2022-11-14T03:06:29.408Z,8.30
2022-11-14T03:09:07.502Z,9.10
2022-11-14T03:11:45.583Z,8.57
2022-11-14T03:14:24.531Z,8.33
2022-11-14T03:17:05.844Z,8.80
2022-11-14T03:19:33.939Z,8.17
2022-11-14T03:22:01.035Z,8.37
2022-11-14T03:24:28.143Z,8.43
2022-11-14T03:26:56.385Z,8.83
2022-11-14T03:29:34.441Z,8.77
2022-11-14T03:32:04.467Z,8.43
2022-11-14T03:34:35.087Z,8.00
2022-11-14T03:37:02.339Z,8.20
2022-11-14T03:39:30.898Z,8.63
2022-11-14T03:42:05.047Z,8.20
2022-11-14T03:44:42.655Z,7.43
2022-11-14T03:47:09.772Z,7.60
2022-11-14T03:49:36.868Z,8.00
2022-11-14T03:52:14.409Z,7.43
2022-11-14T03:54:42.594Z,7.87
2022-11-14T03:57:09.706Z,7.73
2022-11-14T03:59:46.320Z,7.70
2022-11-14T04:02:21.353Z,7.30
2022-11-14T04:04:48.472Z,7.80
2022-11-14T04:07:15.697Z,7.70
2022-11-14T04:09:44.959Z,7.53
2022-11-14T04:12:15.657Z,7.80
2022-11-14T04:14:43.184Z,7.80
2022-11-14T04:17:10.358Z,7.80
2022-11-14T04:19:37.608Z,8.30
2022-11-14T04:22:05.475Z,7.47
2022-11-14T04:24:32.998Z,8.03
2022-11-14T04:27:00.131Z,8.17
2022-11-14T04:29:27.228Z,7.70
2022-11-14T04:31:54.385Z,7.80
2022-11-14T04:34:21.456Z,7.90
2022-11-14T04:36:51.336Z,8.00
2022-11-14T04:39:19.124Z,8.20
2022-11-14T04:41:46.302Z,7.80
2022-11-14T04:44:13.323Z,7.20
2022-11-14T04:46:40.446Z,7.93
2022-11-14T04:49:07.630Z,7.13
2022-11-14T04:51:34.745Z,6.30
2022-11-14T04:54:02.043Z,7.77
2022-11-14T04:56:30.775Z,8.37
2022-11-14T04:59:08.991Z,6.47
2022-11-14T05:01:36.771Z,7.30
2022-11-14T05:04:04.552Z,6.53
2022-11-14T05:06:31.694Z,7.00
2022-11-14T05:08:58.771Z,7.67
2022-11-14T05:11:29.198Z,8.13
2022-11-14T05:13:56.514Z,7.50
2022-11-14T05:16:23.730Z,7.13
2022-11-14T05:19:06.244Z,7.23
2022-11-14T05:21:47.200Z,7.70
2022-11-14T05:24:28.281Z,7.57
2022-11-14T05:27:07.515Z,7.83
2022-11-14T05:29:46.893Z,8.40
2022-11-14T05:32:26.398Z,7.73
2022-11-14T05:35:06.323Z,7.27
2022-11-14T05:37:45.569Z,7.40
2022-11-14T05:40:25.450Z,7.80
2022-11-14T05:43:05.745Z,6.53
2022-11-14T05:45:43.273Z,7.00
2022-11-14T05:48:23.602Z,7.33
2022-11-14T05:51:10.420Z,7.03
2022-11-14T05:53:51.813Z,7.00
2022-11-14T05:56:50.227Z,6.93
2022-11-14T05:59:57.570Z,6.60
2022-11-14T06:02:49.893Z,6.70
2022-11-14T09:00:19.092Z,15.90
2022-11-14T09:11:19.058Z,15.40
2022-11-14T09:13:57.236Z,16.40
2022-11-14T09:16:37.710Z,17.70
2022-11-14T09:19:15.639Z,17.37
2022-11-14T09:22:00.006Z,17.67
2022-11-14T09:24:56.759Z,18.70
2022-11-14T09:27:45.814Z,18.90
2022-11-14T09:30:37.021Z,19.60
2022-11-14T09:33:35.228Z,18.53
2022-11-14T09:36:35.151Z,19.03
2022-11-14T09:39:36.299Z,19.20
2022-11-14T09:42:49.316Z,19.47
2022-11-14T09:45:44.141Z,18.87
2022-11-14T11:58:49.397Z,13.83
2022-11-14T12:01:27.403Z,13.07
2022-11-14T12:04:07.888Z,12.57
2022-11-14T12:07:18.097Z,11.70
2022-11-14T12:10:13.123Z,12.20
2022-11-14T12:12:49.612Z,12.37
2022-11-14T12:16:17.893Z,11.47
2022-11-14T12:19:02.965Z,10.50
2022-11-14T12:22:09.582Z,10.63
2022-11-14T12:25:44.785Z,10.67
2022-11-14T12:28:43.351Z,10.20
2022-11-14T12:31:22.649Z,9.77
2022-11-14T12:34:21.205Z,10.87
2022-11-14T12:36:59.264Z,10.40
2022-11-14T12:39:38.794Z,10.27
2022-11-14T12:42:23.993Z,10.07
2022-11-14T12:45:04.151Z,10.50
2022-11-14T12:48:01.024Z,10.50
2022-11-14T12:50:50.024Z,9.90
2022-11-14T12:53:43.338Z,10.20
2022-11-14T12:57:11.183Z,9.40
2022-11-14T13:00:10.813Z,9.73
2022-11-14T13:03:22.947Z,9.73
2022-11-14T13:06:37.925Z,10.23
2022-11-14T13:10:20.231Z,10.53
2022-11-14T15:24:04.971Z,8.90
2022-11-14T15:26:44.781Z,10.03
2022-11-14T15:29:35.776Z,10.80
2022-11-14T15:32:23.200Z,12.67
2022-11-14T15:35:28.984Z,12.90
2022-11-14T15:41:31.349Z,11.27
2022-11-14T15:44:09.240Z,11.50
2022-11-14T15:46:56.211Z,12.50
2022-11-14T15:49:37.539Z,12.27
2022-11-14T15:52:30.517Z,12.30
2022-11-14T16:34:21.462Z,23.73
2022-11-14T16:37:06.567Z,20.57
2022-11-14T16:39:47.378Z,17.90
2022-11-14T16:42:29.087Z,15.77
2022-11-14T16:45:16.014Z,17.80
2022-11-14T16:47:57.965Z,13.50
2022-11-14T16:50:25.324Z,13.97
2022-11-14T16:52:52.463Z,13.20
2022-11-14T16:55:19.715Z,12.67
2022-11-14T16:57:47.090Z,12.97
2022-11-14T17:00:14.744Z,12.70
2022-11-14T17:02:45.340Z,13.17
2022-11-14T17:05:12.855Z,12.83
2022-11-14T17:07:40.113Z,12.03
2022-11-14T17:10:08.357Z,12.73
2022-11-14T17:12:35.616Z,12.73
2022-11-14T17:15:02.918Z,13.10
2022-11-14T17:17:31.188Z,12.63
2022-11-14T17:19:58.332Z,13.73
2022-11-14T17:22:25.392Z,12.77
2022-11-14T17:24:52.564Z,13.90
2022-11-14T17:27:19.696Z,12.40
2022-11-14T17:29:46.945Z,12.80
2022-11-14T17:32:16.736Z,12.43
2022-11-14T17:34:44.032Z,12.80
2022-11-14T17:37:12.158Z,12.37
2022-11-14T17:39:39.431Z,13.60
2022-11-14T17:42:07.515Z,15.63
2022-11-14T17:44:34.606Z,12.83
2022-11-14T17:47:01.859Z,12.77
2022-11-14T17:49:29.018Z,12.83
2022-11-14T17:51:56.240Z,13.10
2022-11-14T17:54:23.382Z,14.60
2022-11-14T17:56:54.736Z,12.80
2022-11-14T17:59:22.320Z,13.43
2022-11-14T18:01:49.936Z,13.20
2022-11-14T18:04:17.165Z,13.23
2022-11-14T18:06:44.419Z,12.37
2022-11-14T18:09:14.408Z,13.37
2022-11-14T18:11:41.858Z,13.17
2022-11-14T18:14:08.969Z,13.30
2022-11-14T18:17:05.244Z,12.10
2022-11-14T18:19:24.398Z,13.50
2022-11-14T18:21:53.916Z,12.87
2022-11-14T18:24:22.296Z,12.67
2022-11-14T18:26:51.113Z,13.80
2022-11-14T18:29:18.572Z,15.90
2022-11-14T18:31:45.749Z,14.03
2022-11-14T18:34:14.572Z,14.90
2022-11-14T18:36:41.766Z,13.80
2022-11-14T18:39:08.952Z,14.20
2022-11-14T18:41:36.228Z,14.23
2022-11-14T18:44:05.348Z,15.77
2022-11-14T18:46:37.083Z,15.43
2022-11-14T18:49:04.742Z,14.90
2022-11-14T18:51:32.051Z,13.97
2022-11-14T18:54:01.969Z,14.40
2022-11-14T18:56:29.062Z,14.70
2022-11-14T18:58:57.309Z,13.83
2022-11-14T19:01:32.660Z,13.33
2022-11-14T19:04:07.242Z,15.07
2022-11-14T19:06:41.290Z,14.90
2022-11-14T19:09:12.785Z,16.50
2022-11-14T19:11:58.468Z,15.60
2022-11-14T19:14:25.677Z,15.37
2022-11-14T19:16:53.157Z,14.47
2022-11-14T19:19:20.631Z,17.07
2022-11-14T19:21:51.435Z,15.70
2022-11-14T19:24:19.218Z,15.60
2022-11-14T19:26:46.383Z,17.63
2022-11-14T19:29:14.097Z,17.23
2022-11-14T19:31:42.886Z,15.53
2022-11-14T19:34:10.534Z,14.60
2022-11-14T19:36:59.000Z,14.47
2022-11-14T19:39:25.170Z,13.40
2022-11-14T19:41:52.402Z,12.97
2022-11-14T19:44:19.553Z,13.93
2022-11-14T19:46:48.029Z,13.70
2022-11-14T19:49:15.865Z,14.17
2022-11-14T19:51:43.293Z,13.47
2022-11-14T19:54:11.440Z,14.07
2022-11-14T19:56:38.799Z,15.67
2022-11-14T19:59:11.092Z,14.17
2022-11-14T20:01:42.358Z,14.67
2022-11-14T20:04:13.218Z,15.93
2022-11-14T20:06:41.895Z,12.83
2022-11-14T20:09:11.092Z,13.77
2022-11-14T20:11:39.037Z,19.90
2022-11-14T20:14:07.042Z,17.10
2022-11-14T20:16:37.066Z,17.30
2022-11-14T20:19:05.397Z,18.60
2022-11-14T20:21:34.812Z,17.27
2022-11-14T20:24:02.288Z,14.63
2022-11-14T20:26:50.365Z,18.87
2022-11-14T20:29:17.504Z,18.20
2022-11-14T20:31:44.677Z,16.90
2022-11-14T20:34:12.123Z,16.93
2022-11-14T20:37:09.146Z,21.20
2022-11-14T20:39:31.552Z,20.27
2022-11-14T20:41:58.861Z,16.77
2022-11-14T20:44:25.949Z,13.50
2022-11-14T20:46:55.572Z,14.50
2022-11-14T20:49:22.680Z,12.90
2022-11-14T20:51:50.002Z,13.37
2022-11-14T20:54:17.503Z,16.00
2022-11-14T20:56:44.538Z,14.07
2022-11-14T20:59:11.809Z,12.07
2022-11-14T21:04:23.013Z,12.23
2022-11-14T21:06:50.228Z,10.67
2022-11-14T21:09:19.845Z,11.73
2022-11-14T21:11:47.074Z,10.77
2022-11-14T21:14:14.291Z,10.40
2022-11-14T21:16:41.803Z,11.47
2022-11-14T21:19:08.958Z,10.97
2022-11-14T21:21:38.667Z,11.17
2022-11-14T21:24:06.993Z,11.17
2022-11-14T21:26:39.131Z,10.23
2022-11-14T21:29:13.462Z,10.90
2022-11-14T21:31:45.183Z,11.10
2022-11-14T21:34:15.772Z,11.13
2022-11-14T21:36:46.963Z,11.07
2022-11-14T21:39:16.717Z,10.10
2022-11-14T21:41:48.524Z,10.50
2022-11-14T21:44:17.908Z,11.50
2022-11-14T21:46:48.741Z,11.27
2022-11-14T21:49:16.288Z,11.67
2022-11-14T21:51:43.420Z,10.67
2022-11-14T21:54:10.778Z,10.23
2022-11-14T21:56:38.053Z,10.53
2022-11-14T21:59:15.530Z,10.27
2022-11-14T22:02:08.296Z,10.53
2022-11-14T22:04:36.766Z,10.87
2022-11-14T22:07:07.201Z,10.20
2022-11-14T22:09:39.896Z,9.47
2022-11-14T22:12:09.717Z,9.80
2022-11-14T22:14:36.890Z,10.17
2022-11-14T22:17:07.015Z,10.33
2022-11-14T22:19:34.082Z,10.57
2022-11-14T22:22:01.272Z,10.13
2022-11-14T22:24:30.483Z,10.30
2022-11-14T22:26:57.567Z,10.10
2022-11-14T22:29:24.659Z,10.27
2022-11-14T22:31:53.120Z,9.77
2022-11-14T22:34:20.278Z,9.97
2022-11-14T22:36:47.395Z,9.93
2022-11-14T22:39:16.919Z,9.73
2022-11-14T22:41:44.136Z,9.47
2022-11-14T22:44:11.218Z,9.60
2022-11-14T22:46:39.223Z,9.93
2022-11-14T22:49:08.572Z,9.77
2022-11-14T22:51:35.684Z,10.07
2022-11-14T22:54:02.829Z,9.23
2022-11-14T22:56:33.095Z,9.57
2022-11-14T22:59:00.900Z,10.30
2022-11-14T23:01:32.979Z,9.50
2022-11-14T23:04:05.905Z,10.77
2022-11-14T23:07:29.547Z,9.60
2022-11-14T23:09:57.784Z,9.53
2022-11-14T23:12:24.800Z,10.07
2022-11-14T23:14:51.812Z,10.00
2022-11-14T23:17:18.967Z,9.93
2022-11-14T23:19:46.144Z,9.17
2022-11-14T23:22:13.243Z,9.87
2022-11-14T23:24:40.346Z,9.40
2022-11-14T23:27:07.365Z,9.97
2022-11-14T23:29:34.569Z,10.10
2022-11-14T23:32:01.786Z,11.47
2022-11-14T23:34:28.958Z,10.70
2022-11-14T23:36:56.017Z,10.17
2022-11-14T23:39:23.177Z,10.43
2022-11-14T23:41:50.315Z,10.33
2022-11-14T23:44:18.318Z,9.10
2022-11-14T23:46:45.455Z,10.20
2022-11-14T23:49:12.568Z,10.23
2022-11-14T23:51:39.709Z,10.13
2022-11-14T23:54:06.777Z,9.83
2022-11-14T23:56:33.895Z,10.03
2022-11-14T23:59:00.964Z,10.13
